createdAt,value
2023-03-20T00:02:24.820Z,98.85
2023-03-20T00:04:53.157Z,99.82
2023-03-20T00:07:21.869Z,106.63
2023-03-20T00:09:49.905Z,106.32
2023-03-20T00:12:26.608Z,116.70
2023-03-20T00:14:54.993Z,102.22
2023-03-20T00:17:23.425Z,113.25
2023-03-20T00:19:51.483Z,109.70
2023-03-20T00:22:19.704Z,120.40
2023-03-20T00:24:47.711Z,115.10
2023-03-20T00:27:17.853Z,104.40
2023-03-20T00:29:46.414Z,93.63
2023-03-20T00:32:15.548Z,97.32
2023-03-20T00:34:43.645Z,114.97
2023-03-20T00:37:14.336Z,108.65
2023-03-20T00:39:42.376Z,127.00
2023-03-20T00:42:22.997Z,119.20
2023-03-20T00:44:55.873Z,115.75
2023-03-20T00:47:29.030Z,112.75
2023-03-20T00:49:58.122Z,134.20
2023-03-20T00:52:26.811Z,112.68
2023-03-20T00:54:54.959Z,120.05
2023-03-20T00:57:33.711Z,114.90
2023-03-20T01:00:13.063Z,126.60
2023-03-20T01:02:41.356Z,133.07
2023-03-20T01:05:10.190Z,128.68
2023-03-20T01:07:38.388Z,121.93
2023-03-20T01:10:07.566Z,122.60
2023-03-20T01:12:35.906Z,120.03
2023-03-20T01:15:04.709Z,110.10
2023-03-20T01:17:33.992Z,131.48
2023-03-20T01:20:02.252Z,123.28
2023-03-20T01:22:30.729Z,113.63
2023-03-20T01:24:58.804Z,123.07
2023-03-20T01:27:26.837Z,130.05
2023-03-20T01:29:54.780Z,121.18
2023-03-20T01:32:23.658Z,126.47
2023-03-20T01:34:53.392Z,131.73
2023-03-20T01:37:30.770Z,128.70
2023-03-20T01:40:03.155Z,114.60
2023-03-20T01:42:34.716Z,108.43
2023-03-20T01:45:15.946Z,120.03
2023-03-20T01:50:42.784Z,120.28
2023-03-20T01:53:27.709Z,127.97
2023-03-20T01:56:01.839Z,117.63
2023-03-20T01:58:49.704Z,104.88
2023-03-20T02:01:19.254Z,109.82
2023-03-20T02:03:52.047Z,111.97
2023-03-20T02:06:36.175Z,113.22
2023-03-20T02:09:12.949Z,122.93
2023-03-20T02:14:15.296Z,104.10
2023-03-20T02:16:53.496Z,107.65
2023-03-20T02:19:50.136Z,105.07
2023-03-20T02:22:55.489Z,97.47
2023-03-20T02:25:49.180Z,93.85
2023-03-20T02:29:01.164Z,120.57
2023-03-20T02:32:10.019Z,184.18
2023-03-20T02:35:16.263Z,98.10
2023-03-20T02:37:55.446Z,97.15
2023-03-20T02:40:31.983Z,111.88
2023-03-20T02:43:21.369Z,94.25
2023-03-20T02:46:10.487Z,95.18
2023-03-20T02:49:00.788Z,92.47
2023-03-20T02:51:45.373Z,82.95
2023-03-20T02:54:51.637Z,80.10
2023-03-20T02:57:28.166Z,82.07
2023-03-20T03:00:03.199Z,97.22
2023-03-20T03:02:52.054Z,100.20
2023-03-20T03:05:28.310Z,86.97
2023-03-20T03:08:01.090Z,93.03
2023-03-20T03:10:38.407Z,91.60
2023-03-20T03:13:15.651Z,76.97
2023-03-20T03:15:49.609Z,95.85
2023-03-20T03:18:25.979Z,87.50
2023-03-20T03:21:00.408Z,76.65
2023-03-20T03:23:47.147Z,78.10
2023-03-20T03:26:39.630Z,74.90
2023-03-20T03:29:17.250Z,78.40
2023-03-20T03:31:46.204Z,70.05
2023-03-20T03:34:18.626Z,66.80
2023-03-20T03:37:19.890Z,65.22
2023-03-20T03:42:33.855Z,84.20
2023-03-20T03:45:17.518Z,67.95
2023-03-20T03:47:53.712Z,70.40
2023-03-20T03:50:36.054Z,70.93
2023-03-20T03:53:11.996Z,70.93
2023-03-20T03:55:46.410Z,75.20
2023-03-20T03:58:40.549Z,64.90
2023-03-20T04:01:12.118Z,73.80
2023-03-20T04:03:49.643Z,71.88
2023-03-20T04:06:18.494Z,64.82
2023-03-20T04:08:46.539Z,58.78
2023-03-20T04:11:21.831Z,69.82
2023-03-20T04:13:57.672Z,61.70
2023-03-20T04:19:38.611Z,68.70
2023-03-20T04:22:06.790Z,75.30
2023-03-20T04:24:34.728Z,76.70
2023-03-20T04:27:02.821Z,83.78
2023-03-20T04:29:30.888Z,80.22
2023-03-20T04:32:27.922Z,68.65
2023-03-20T04:35:10.201Z,69.28
2023-03-20T04:37:50.575Z,76.85
2023-03-20T04:40:20.168Z,70.68
2023-03-20T04:42:48.991Z,69.90
2023-03-20T04:45:20.261Z,69.07
2023-03-20T04:47:48.301Z,66.68
2023-03-20T04:50:17.646Z,74.47
2023-03-20T04:52:46.007Z,67.75
2023-03-20T04:55:16.213Z,75.03
2023-03-20T04:57:44.246Z,65.40
2023-03-20T05:00:14.226Z,71.03
2023-03-20T05:02:43.474Z,75.60
2023-03-20T05:05:11.658Z,66.82
2023-03-20T05:07:40.269Z,71.50
2023-03-20T05:10:11.793Z,68.00
2023-03-20T05:12:49.864Z,67.00
2023-03-20T05:15:29.685Z,60.25
2023-03-20T05:18:16.820Z,58.35
2023-03-20T05:21:04.393Z,57.67
2023-03-20T05:23:50.645Z,60.35
2023-03-20T05:26:49.442Z,60.85
2023-03-20T05:29:20.335Z,54.25
2023-03-20T05:32:03.904Z,55.38
2023-03-20T05:34:38.923Z,62.53
2023-03-20T05:37:13.444Z,62.53
2023-03-20T05:40:16.903Z,52.85
2023-03-20T05:42:58.106Z,59.05
2023-03-20T05:45:28.897Z,57.40
2023-03-20T05:48:15.699Z,55.38
2023-03-20T05:50:43.742Z,56.38
2023-03-20T05:53:40.766Z,51.47
2023-03-20T05:56:32.171Z,53.97
2023-03-20T05:59:13.094Z,57.58
2023-03-20T06:02:10.767Z,60.08
2023-03-20T06:04:43.122Z,58.65
2023-03-20T06:07:14.349Z,48.17
2023-03-20T06:09:46.023Z,48.13
2023-03-20T06:12:16.356Z,52.65
2023-03-20T06:14:44.709Z,50.13
2023-03-20T06:17:14.293Z,48.88
2023-03-20T06:19:43.972Z,54.13
2023-03-20T06:22:12.246Z,50.60
2023-03-20T06:24:41.352Z,45.72
2023-03-20T06:27:10.340Z,49.25
2023-03-20T06:29:39.340Z,47.42
2023-03-20T06:32:17.572Z,47.50
2023-03-20T06:34:48.517Z,45.40
2023-03-20T06:37:16.799Z,45.00
2023-03-20T06:39:45.147Z,54.88
2023-03-20T06:42:16.227Z,47.25
2023-03-20T06:44:46.486Z,43.20
2023-03-20T06:47:35.790Z,48.92
2023-03-20T06:50:04.854Z,43.95
2023-03-20T06:52:33.984Z,49.67
2023-03-20T06:55:41.032Z,50.72
2023-03-20T06:58:09.321Z,50.28
2023-03-20T07:00:38.558Z,54.47
2023-03-20T07:03:09.192Z,48.53
2023-03-20T07:05:40.550Z,50.65
2023-03-20T07:08:11.221Z,48.83
2023-03-20T07:10:39.426Z,48.05
2023-03-20T07:13:07.666Z,51.28
2023-03-20T07:15:38.491Z,43.83
2023-03-20T07:18:08.671Z,45.50
2023-03-20T07:20:36.940Z,44.55
2023-03-20T07:23:05.288Z,49.80
2023-03-20T07:25:42.222Z,48.03
2023-03-20T07:28:14.308Z,50.45
2023-03-20T07:30:46.193Z,44.30
2023-03-20T07:35:47.052Z,46.40
2023-03-20T07:38:15.495Z,47.88
2023-03-20T07:40:55.641Z,50.45
2023-03-20T07:43:23.824Z,46.63
2023-03-20T07:46:21.088Z,46.50
2023-03-20T07:48:49.676Z,51.63
2023-03-20T07:51:18.333Z,52.75
2023-03-20T07:53:46.685Z,53.83
2023-03-20T07:56:14.760Z,43.60
2023-03-20T07:58:42.720Z,46.65
2023-03-20T08:01:11.167Z,47.83
2023-03-20T08:03:39.780Z,43.47
2023-03-20T08:06:09.776Z,55.25
2023-03-20T08:08:40.011Z,44.40
2023-03-20T08:11:08.125Z,51.10
2023-03-20T08:13:36.348Z,52.13
2023-03-20T08:16:05.384Z,47.00
2023-03-20T08:18:33.517Z,48.35
2023-03-20T08:21:01.824Z,53.05
2023-03-20T08:23:30.063Z,54.80
2023-03-20T08:25:58.393Z,48.13
2023-03-20T08:28:44.276Z,49.05
2023-03-20T08:31:16.978Z,44.35
2023-03-20T08:33:47.098Z,47.65
2023-03-20T08:36:17.382Z,48.53
2023-03-20T08:38:46.001Z,43.03
2023-03-20T08:41:14.061Z,37.88
2023-03-20T08:43:42.916Z,39.70
2023-03-20T08:46:11.179Z,42.30
2023-03-20T08:48:39.673Z,41.47
2023-03-20T08:51:08.455Z,44.28
2023-03-20T08:53:37.054Z,48.38
2023-03-20T08:56:05.981Z,43.30
2023-03-20T08:58:33.973Z,45.17
2023-03-20T09:01:08.150Z,42.30
2023-03-20T09:03:37.034Z,41.72
2023-03-20T09:06:10.059Z,48.33
2023-03-20T09:08:38.896Z,53.75
2023-03-20T09:11:08.312Z,49.17
2023-03-20T09:13:37.176Z,44.00
2023-03-20T09:16:06.829Z,31.80
2023-03-20T09:18:36.167Z,40.10
2023-03-20T09:21:05.009Z,42.03
2023-03-20T09:23:33.522Z,40.08
2023-03-20T09:26:01.593Z,40.17
2023-03-20T09:28:30.011Z,38.90
2023-03-20T09:30:59.755Z,36.08
2023-03-20T09:33:28.748Z,34.15
2023-03-20T09:35:57.168Z,43.40
2023-03-20T09:38:25.557Z,33.38
2023-03-20T09:41:00.898Z,32.85
2023-03-20T09:44:08.885Z,35.30
2023-03-20T09:47:19.779Z,34.17
2023-03-20T09:50:22.840Z,37.00
2023-03-20T09:53:07.482Z,36.22
2023-03-20T09:55:40.019Z,36.90
2023-03-20T09:58:49.001Z,32.55
2023-03-20T10:01:19.110Z,26.40
2023-03-20T10:04:13.473Z,29.95
2023-03-20T10:06:42.925Z,29.02
2023-03-20T10:09:35.021Z,33.00
2023-03-20T10:12:17.081Z,31.38
2023-03-20T10:15:16.937Z,37.72
2023-03-20T10:18:26.738Z,32.42
2023-03-20T10:20:56.582Z,32.58
2023-03-20T10:24:01.480Z,32.35
2023-03-20T10:26:32.278Z,27.50
2023-03-20T10:29:30.820Z,30.15
2023-03-20T10:32:08.104Z,34.05
2023-03-20T10:35:13.571Z,33.67
2023-03-20T10:38:25.097Z,31.85
2023-03-20T10:40:58.128Z,28.30
2023-03-20T10:43:33.225Z,31.02
2023-03-20T10:46:20.117Z,26.83
2023-03-20T10:49:01.864Z,28.98
2023-03-20T10:51:53.327Z,35.60
2023-03-20T10:54:27.360Z,36.67
2023-03-20T10:57:00.457Z,36.10
2023-03-20T10:59:41.085Z,40.80
2023-03-20T11:02:14.590Z,39.60
2023-03-20T11:04:43.473Z,43.45
2023-03-20T11:07:28.917Z,49.13
2023-03-20T11:10:06.242Z,43.28
2023-03-20T11:12:42.925Z,48.25
2023-03-20T11:15:27.386Z,42.63
2023-03-20T11:18:05.051Z,46.72
2023-03-20T11:20:55.009Z,52.65
2023-03-20T11:23:37.831Z,44.50
2023-03-20T11:26:12.236Z,58.55
2023-03-20T11:28:46.510Z,41.78
2023-03-20T11:31:14.529Z,36.78
2023-03-20T11:34:09.421Z,38.05
2023-03-20T11:36:40.311Z,48.00
2023-03-20T11:39:16.299Z,39.73
2023-03-20T11:41:58.762Z,40.72
2023-03-20T11:44:37.162Z,47.45
2023-03-20T11:47:17.718Z,38.17
2023-03-20T11:49:52.972Z,39.27
2023-03-20T11:52:32.944Z,36.58
2023-03-20T11:55:08.202Z,37.47
2023-03-20T11:57:44.124Z,39.78
2023-03-20T12:00:27.269Z,41.67
2023-03-20T12:05:42.442Z,38.17
2023-03-20T12:08:20.253Z,37.05
2023-03-20T12:11:01.043Z,32.92
2023-03-20T12:13:43.774Z,39.63
2023-03-20T12:16:24.040Z,39.15
2023-03-20T12:19:05.439Z,35.35
2023-03-20T12:21:46.668Z,41.80
2023-03-20T12:24:42.379Z,40.10
2023-03-20T12:27:38.377Z,41.83
2023-03-20T12:30:10.170Z,44.10
2023-03-20T12:32:56.678Z,50.88
2023-03-20T12:35:37.209Z,40.35
2023-03-20T12:38:31.755Z,37.33
2023-03-20T12:41:41.772Z,45.63
2023-03-20T12:44:36.042Z,47.05
2023-03-20T12:47:09.865Z,49.08
2023-03-20T12:50:14.855Z,54.83
2023-03-20T12:53:01.591Z,54.22
2023-03-20T12:56:09.863Z,56.05
2023-03-20T12:58:51.708Z,59.92
2023-03-20T13:01:29.794Z,59.78
2023-03-20T13:04:35.077Z,55.28
2023-03-20T13:07:54.608Z,54.35
2023-03-20T13:10:34.186Z,57.58
2023-03-20T13:13:33.689Z,50.30
2023-03-20T13:16:13.518Z,51.20
2023-03-20T13:18:59.387Z,52.35
2023-03-20T13:21:38.156Z,51.10
2023-03-20T13:24:23.305Z,52.40
2023-03-20T13:27:00.253Z,52.78
2023-03-20T13:29:59.558Z,53.28
2023-03-20T13:32:43.018Z,57.58
2023-03-20T13:35:24.771Z,49.83
2023-03-20T13:40:40.471Z,52.40
2023-03-20T13:43:42.724Z,48.03
2023-03-20T13:46:24.165Z,57.72
2023-03-20T13:48:54.849Z,55.42
2023-03-20T13:51:34.802Z,48.45
2023-03-20T13:54:49.254Z,51.90
2023-03-20T13:58:07.275Z,54.83
2023-03-20T14:01:34.168Z,56.92
2023-03-20T14:04:04.008Z,58.25
2023-03-20T14:06:31.953Z,61.00
2023-03-20T14:09:01.323Z,57.55
2023-03-20T14:11:35.737Z,54.33
2023-03-20T14:14:15.120Z,41.35
2023-03-20T14:16:44.887Z,44.78
2023-03-20T14:19:24.817Z,46.30
2023-03-20T14:21:57.287Z,47.38
2023-03-20T14:24:28.025Z,40.58
2023-03-20T14:27:01.043Z,40.37
2023-03-20T14:29:37.505Z,41.10
2023-03-20T14:32:14.547Z,35.88
2023-03-20T14:34:51.248Z,39.50
2023-03-20T14:38:16.374Z,33.03
2023-03-20T14:41:12.474Z,28.92
2023-03-20T14:44:22.982Z,33.60
2023-03-20T14:47:37.645Z,31.63
2023-03-20T14:50:31.804Z,28.83
2023-03-20T14:53:26.082Z,32.13
2023-03-20T14:55:57.197Z,28.85
2023-03-20T14:59:11.209Z,26.73
2023-03-20T15:01:39.327Z,32.50
2023-03-20T15:04:17.221Z,24.92
2023-03-20T15:07:03.803Z,24.10
2023-03-20T15:09:36.988Z,29.25
2023-03-20T15:12:05.579Z,27.27
2023-03-20T15:15:06.158Z,27.90
2023-03-20T15:17:44.411Z,30.83
2023-03-20T15:20:36.352Z,31.13
2023-03-20T15:23:06.220Z,28.13
2023-03-20T15:25:44.326Z,34.08
2023-03-20T15:28:19.617Z,29.67
2023-03-20T15:30:51.341Z,26.83
2023-03-20T15:33:34.446Z,24.80
2023-03-20T15:36:21.874Z,26.02
2023-03-20T15:38:50.179Z,26.70
2023-03-20T15:41:34.396Z,27.20
2023-03-20T15:44:16.580Z,28.52
2023-03-20T15:47:14.025Z,23.05
2023-03-20T15:49:42.716Z,27.10
2023-03-20T15:52:18.923Z,29.23
2023-03-20T15:54:48.871Z,33.33
2023-03-20T15:57:35.690Z,33.33
2023-03-20T16:00:15.561Z,33.25
2023-03-20T16:02:48.488Z,31.42
2023-03-20T16:05:18.946Z,32.92
2023-03-20T16:07:47.562Z,46.92
2023-03-20T16:10:36.673Z,61.00
2023-03-20T16:13:07.080Z,62.00
2023-03-20T16:15:35.441Z,65.25
2023-03-20T16:18:06.998Z,60.65
2023-03-20T16:20:43.472Z,59.70
2023-03-20T16:23:20.587Z,46.92
2023-03-20T16:25:48.972Z,41.47
2023-03-20T16:28:17.490Z,32.35
2023-03-20T16:30:45.695Z,29.60
2023-03-20T16:33:17.476Z,28.92
2023-03-20T16:35:50.424Z,32.75
2023-03-20T16:38:34.615Z,40.63
2023-03-20T16:41:40.114Z,32.83
2023-03-20T16:44:23.362Z,38.25
2023-03-20T16:47:01.368Z,50.45
2023-03-20T16:49:30.023Z,54.83
2023-03-20T16:52:01.725Z,51.45
2023-03-20T16:57:04.344Z,65.32
2023-03-20T16:59:33.307Z,67.80
2023-03-20T17:02:01.772Z,68.15
2023-03-20T17:04:40.697Z,70.40
2023-03-20T17:07:18.629Z,72.50
2023-03-20T17:10:18.636Z,76.78
2023-03-20T17:12:49.674Z,73.32
2023-03-20T17:15:26.180Z,76.60
2023-03-20T17:17:55.287Z,85.88
2023-03-20T17:20:31.416Z,84.15
2023-03-20T17:22:59.943Z,90.47
2023-03-20T17:25:28.328Z,86.80
2023-03-20T17:27:56.678Z,83.22
2023-03-20T17:30:25.596Z,82.45
2023-03-20T17:32:54.440Z,79.18
2023-03-20T17:35:23.288Z,90.28
2023-03-20T17:37:51.668Z,106.43
2023-03-20T17:40:25.724Z,97.68
2023-03-20T17:42:54.402Z,122.70
2023-03-20T17:45:24.183Z,116.85
2023-03-20T17:47:52.977Z,106.18
2023-03-20T17:50:25.672Z,102.82
2023-03-20T17:52:55.803Z,101.00
2023-03-20T17:55:24.031Z,97.32
2023-03-20T17:57:52.253Z,102.97
2023-03-20T18:00:24.830Z,102.57
2023-03-20T18:02:53.634Z,93.68
2023-03-20T18:05:22.278Z,89.95
2023-03-20T18:07:50.758Z,92.93
2023-03-20T18:10:32.266Z,91.93
2023-03-20T18:13:01.307Z,83.82
2023-03-20T18:15:30.135Z,82.07
2023-03-20T18:17:58.391Z,79.97
2023-03-20T18:20:33.481Z,96.13
2023-03-20T18:23:02.362Z,77.30
2023-03-20T18:25:31.107Z,96.45
2023-03-20T18:31:15.231Z,124.68
2023-03-20T18:33:43.641Z,109.20
2023-03-20T18:36:20.577Z,112.43
2023-03-20T18:38:51.246Z,106.88
2023-03-20T18:41:21.126Z,88.38
2023-03-20T18:43:50.964Z,83.90
2023-03-20T18:46:24.265Z,68.72
2023-03-20T18:48:54.013Z,74.10
2023-03-20T18:51:44.335Z,71.70
2023-03-20T18:54:18.681Z,67.88
2023-03-20T18:57:01.858Z,68.07
2023-03-20T18:59:30.141Z,72.13
2023-03-20T19:01:58.457Z,67.72
2023-03-20T19:04:27.169Z,65.40
2023-03-20T19:06:55.860Z,62.55
2023-03-20T19:09:24.026Z,61.97
2023-03-20T19:11:52.114Z,53.97
2023-03-20T19:14:20.281Z,51.80
2023-03-20T19:16:48.686Z,61.30
2023-03-20T19:19:16.744Z,59.58
2023-03-20T19:21:45.180Z,58.17
2023-03-20T19:24:13.537Z,57.45
2023-03-20T19:26:42.226Z,52.78
2023-03-20T19:29:14.144Z,50.70
2023-03-20T19:31:42.741Z,51.88
2023-03-20T19:34:29.506Z,58.00
2023-03-20T19:36:59.190Z,52.47
2023-03-20T19:39:27.489Z,59.03
2023-03-20T19:41:56.200Z,65.60
2023-03-20T19:44:24.583Z,66.47
2023-03-20T19:46:53.106Z,73.32
2023-03-20T19:49:30.213Z,66.47
2023-03-20T19:51:59.433Z,66.32
2023-03-20T19:54:28.671Z,60.50
2023-03-20T19:56:56.812Z,67.30
2023-03-20T19:59:25.977Z,65.70
2023-03-20T20:01:54.954Z,57.42
2023-03-20T20:04:23.461Z,57.28
2023-03-20T20:06:55.440Z,57.97
2023-03-20T20:09:26.834Z,58.38
2023-03-20T20:11:55.308Z,61.83
2023-03-20T20:14:24.167Z,55.80
2023-03-20T20:16:55.614Z,57.72
2023-03-20T20:19:24.915Z,57.28
2023-03-20T20:24:41.575Z,52.92
2023-03-20T20:27:18.812Z,59.45
2023-03-20T20:29:52.669Z,64.90
2023-03-20T20:32:24.770Z,58.58
2023-03-20T20:38:27.095Z,60.30
2023-03-20T20:40:31.850Z,64.07
2023-03-20T20:43:02.579Z,59.58
2023-03-20T20:45:32.220Z,59.95
2023-03-20T20:48:02.796Z,65.97
2023-03-20T20:50:36.065Z,61.47
2023-03-20T20:53:05.252Z,107.95
2023-03-20T20:55:33.283Z,61.60
2023-03-20T20:58:03.901Z,64.00
2023-03-20T21:00:48.368Z,62.40
2023-03-20T21:03:17.233Z,56.10
2023-03-20T21:05:45.646Z,62.78
2023-03-20T21:08:14.729Z,63.20
2023-03-20T21:10:46.337Z,68.97
2023-03-20T21:13:15.694Z,67.55
2023-03-20T21:15:45.672Z,60.80
2023-03-20T21:18:14.870Z,67.22
2023-03-20T21:20:43.476Z,73.72
2023-03-20T21:23:11.818Z,76.10
2023-03-20T21:25:42.582Z,64.97
2023-03-20T21:28:11.906Z,72.93
2023-03-20T21:31:09.167Z,67.20
2023-03-20T21:33:35.907Z,63.45
2023-03-20T21:36:05.089Z,69.63
2023-03-20T21:41:24.859Z,67.25
2023-03-20T21:43:54.082Z,67.72
2023-03-20T21:55:30.930Z,72.45
2023-03-20T21:58:21.236Z,75.30
2023-03-20T22:03:28.838Z,70.75
2023-03-20T22:06:59.038Z,82.63
2023-03-20T22:09:52.294Z,83.90
2023-03-20T22:12:35.686Z,79.50
2023-03-20T22:18:05.723Z,76.65
2023-03-20T22:32:18.645Z,78.75
2023-03-20T22:35:05.042Z,74.90
2023-03-20T22:37:57.140Z,83.68
2023-03-20T22:46:45.218Z,65.78
2023-03-20T22:49:45.677Z,71.85
2023-03-20T22:52:29.247Z,72.10
2023-03-20T22:55:02.116Z,64.15
2023-03-20T22:57:41.206Z,69.38
2023-03-20T23:00:15.404Z,68.25
2023-03-20T23:02:43.697Z,64.78
2023-03-20T23:05:12.122Z,69.45
2023-03-20T23:07:40.907Z,68.88
2023-03-20T23:10:10.006Z,72.13
2023-03-20T23:12:38.866Z,76.95
2023-03-20T23:15:08.178Z,71.78
2023-03-20T23:17:36.453Z,69.22
2023-03-20T23:20:12.136Z,70.22
2023-03-20T23:22:41.645Z,75.88
2023-03-20T23:25:21.073Z,73.30
2023-03-20T23:27:58.174Z,73.57
2023-03-20T23:30:33.975Z,73.13
2023-03-20T23:33:06.569Z,75.47
2023-03-20T23:35:34.759Z,67.95
2023-03-20T23:38:02.821Z,74.05
2023-03-20T23:40:31.323Z,69.00
2023-03-20T23:42:59.523Z,73.88
2023-03-20T23:45:27.556Z,77.18
2023-03-20T23:47:55.892Z,73.40
2023-03-20T23:50:31.830Z,72.40
2023-03-20T23:53:19.444Z,73.60
2023-03-20T23:55:52.080Z,72.47
2023-03-20T23:58:24.347Z,72.85
